createdAt,value
2022-07-29T00:00:19.191Z,17.30
2022-07-29T00:02:46.550Z,17.20
2022-07-29T00:05:15.050Z,17.30
2022-07-29T00:07:42.542Z,17.30
2022-07-29T00:10:09.980Z,17.30
2022-07-29T00:12:37.408Z,17.30
2022-07-29T00:15:05.467Z,17.30
2022-07-29T00:17:32.679Z,17.20
2022-07-29T00:20:00.114Z,17.20
2022-07-29T00:22:27.263Z,17.30
2022-07-29T00:24:54.382Z,17.30
2022-07-29T00:27:21.748Z,17.30
2022-07-29T00:29:48.961Z,17.30
2022-07-29T00:32:16.108Z,17.30
2022-07-29T00:35:02.212Z,17.30
2022-07-29T00:37:29.750Z,17.20
2022-07-29T00:39:56.961Z,17.10
2022-07-29T00:42:24.223Z,17.20
2022-07-29T00:44:51.431Z,17.20
2022-07-29T00:47:18.720Z,17.20
2022-07-29T00:49:45.932Z,17.20
2022-07-29T00:52:16.985Z,17.20
2022-07-29T00:54:47.913Z,17.30
2022-07-29T00:57:18.776Z,17.30
2022-07-29T00:59:47.374Z,17.30
2022-07-29T01:02:15.515Z,17.30
2022-07-29T01:04:42.626Z,17.30
2022-07-29T01:07:09.926Z,17.30
2022-07-29T01:09:45.926Z,17.30
2022-07-29T01:12:16.380Z,17.20
2022-07-29T01:14:43.951Z,17.20
2022-07-29T01:17:12.146Z,17.20
2022-07-29T01:19:56.888Z,17.20
2022-07-29T01:22:36.395Z,17.30
2022-07-29T01:25:33.934Z,17.20
2022-07-29T01:28:01.135Z,17.20
2022-07-29T01:30:31.226Z,17.20
2022-07-29T01:33:01.488Z,17.20
2022-07-29T01:35:39.381Z,17.20
2022-07-29T01:38:15.213Z,17.20
2022-07-29T01:40:53.843Z,17.30
2022-07-29T01:43:22.712Z,17.30
2022-07-29T01:45:58.849Z,17.20
2022-07-29T01:48:32.545Z,17.20
2022-07-29T01:51:04.109Z,17.20
2022-07-29T01:53:55.161Z,17.20
2022-07-29T01:56:22.329Z,17.20
2022-07-29T01:58:49.505Z,17.10
2022-07-29T02:01:16.782Z,17.10
2022-07-29T02:03:47.253Z,17.10
2022-07-29T02:06:17.939Z,17.00
2022-07-29T02:08:48.070Z,17.00
2022-07-29T02:11:15.351Z,17.00
2022-07-29T02:13:42.810Z,16.90
2022-07-29T02:16:10.144Z,16.90
2022-07-29T02:18:38.334Z,16.90
2022-07-29T02:21:05.955Z,16.80
2022-07-29T02:23:50.057Z,16.80
2022-07-29T02:26:20.794Z,16.70
2022-07-29T02:28:48.652Z,16.70
2022-07-29T02:31:15.921Z,16.70
2022-07-29T02:33:43.819Z,16.50
2022-07-29T02:36:11.068Z,16.50
2022-07-29T02:38:53.795Z,16.40
2022-07-29T02:41:43.978Z,16.40
2022-07-29T02:44:22.193Z,16.20
2022-07-29T02:47:12.585Z,16.20
2022-07-29T02:49:50.067Z,16.10
2022-07-29T02:52:21.884Z,16.10
2022-07-29T02:54:56.150Z,16.00
2022-07-29T02:57:54.831Z,16.00
2022-07-29T03:00:24.398Z,16.00
2022-07-29T03:02:53.041Z,15.90
2022-07-29T03:05:20.990Z,15.80
2022-07-29T03:07:59.956Z,15.80
2022-07-29T03:10:27.068Z,15.80
2022-07-29T03:12:55.244Z,15.70
2022-07-29T03:15:22.980Z,15.70
2022-07-29T03:17:52.582Z,15.70
2022-07-29T03:20:19.759Z,15.60
2022-07-29T03:22:48.452Z,15.60
2022-07-29T03:25:17.165Z,15.50
2022-07-29T03:27:44.955Z,15.40
2022-07-29T03:30:13.005Z,15.40
2022-07-29T03:32:45.647Z,15.40
2022-07-29T03:35:13.027Z,15.30
2022-07-29T03:37:41.081Z,15.30
2022-07-29T03:40:09.895Z,15.30
2022-07-29T03:42:37.890Z,15.30
2022-07-29T03:45:08.195Z,15.30
2022-07-29T03:47:49.529Z,15.20
2022-07-29T03:50:20.547Z,15.20
2022-07-29T03:52:48.291Z,15.00
2022-07-29T03:55:16.046Z,15.00
2022-07-29T03:57:45.202Z,14.90
2022-07-29T04:00:12.648Z,14.90
2022-07-29T04:02:39.759Z,14.80
2022-07-29T04:05:07.407Z,14.90
2022-07-29T04:07:34.658Z,14.80
2022-07-29T04:10:01.779Z,14.80
2022-07-29T04:12:29.122Z,14.70
2022-07-29T04:14:56.248Z,14.70
2022-07-29T04:17:23.481Z,14.60
2022-07-29T04:19:50.888Z,14.60
2022-07-29T04:22:18.081Z,14.60
2022-07-29T04:24:48.283Z,14.50
2022-07-29T04:27:15.811Z,14.50
2022-07-29T04:29:57.316Z,14.50
2022-07-29T04:32:25.706Z,14.50
2022-07-29T04:34:53.873Z,14.50
2022-07-29T04:37:20.983Z,14.50
2022-07-29T04:39:48.498Z,14.50
2022-07-29T04:42:15.737Z,14.60
2022-07-29T04:44:45.024Z,14.60
2022-07-29T04:47:13.006Z,14.60
2022-07-29T04:49:40.832Z,14.60
2022-07-29T04:52:08.084Z,14.60
2022-07-29T04:54:35.381Z,14.50
2022-07-29T04:57:02.560Z,14.60
2022-07-29T04:59:29.784Z,14.60
2022-07-29T05:01:57.135Z,14.60
2022-07-29T05:04:24.454Z,14.70
2022-07-29T05:06:51.547Z,14.80
2022-07-29T05:09:18.786Z,14.90
2022-07-29T05:11:45.990Z,14.90
2022-07-29T05:14:14.525Z,15.00
2022-07-29T05:16:44.508Z,15.10
2022-07-29T05:19:14.375Z,15.20
2022-07-29T05:21:42.014Z,15.30
2022-07-29T05:24:09.360Z,15.40
2022-07-29T05:26:36.515Z,15.50
2022-07-29T05:29:03.762Z,15.60
2022-07-29T05:31:31.256Z,15.70
2022-07-29T05:33:58.530Z,15.90
2022-07-29T05:36:25.697Z,16.10
2022-07-29T05:38:53.417Z,16.30
2022-07-29T05:41:21.050Z,16.40
2022-07-29T05:43:48.215Z,16.60
2022-07-29T05:46:16.500Z,16.80
2022-07-29T05:48:43.906Z,16.90
2022-07-29T05:51:11.260Z,17.20
2022-07-29T05:53:38.687Z,17.30
2022-07-29T05:56:06.567Z,17.40
2022-07-29T05:58:33.832Z,17.60
2022-07-29T06:01:01.856Z,17.70
2022-07-29T06:03:29.277Z,17.80
2022-07-29T06:05:56.460Z,17.80
2022-07-29T06:08:24.003Z,17.90
2022-07-29T06:10:51.254Z,18.00
2022-07-29T06:13:18.390Z,18.10
2022-07-29T06:15:45.948Z,18.20
2022-07-29T06:18:14.853Z,18.30
2022-07-29T06:20:42.276Z,18.30
2022-07-29T06:23:11.030Z,18.30
2022-07-29T06:25:38.744Z,18.30
2022-07-29T06:28:05.907Z,18.40
2022-07-29T06:30:33.597Z,18.40
2022-07-29T06:33:02.439Z,18.50
2022-07-29T06:35:39.353Z,18.70
2022-07-29T06:38:30.060Z,18.90
2022-07-29T06:41:11.272Z,19.10
2022-07-29T06:43:50.730Z,19.20
2022-07-29T06:49:06.995Z,19.30
2022-07-29T06:51:34.617Z,19.50
2022-07-29T06:54:03.417Z,19.60
2022-07-29T06:56:38.625Z,19.70
2022-07-29T06:59:08.381Z,19.80
2022-07-29T07:01:36.668Z,20.00
2022-07-29T07:04:04.039Z,20.20
2022-07-29T07:06:31.527Z,20.10
2022-07-29T07:08:58.587Z,20.20
2022-07-29T07:11:25.714Z,20.30
2022-07-29T07:13:53.102Z,20.30
2022-07-29T07:16:20.274Z,20.20
2022-07-29T07:18:47.483Z,20.10
2022-07-29T07:21:19.266Z,20.00
2022-07-29T07:23:47.375Z,19.90
2022-07-29T07:26:15.451Z,19.80
2022-07-29T07:28:42.804Z,19.70
2022-07-29T07:31:10.627Z,19.70
2022-07-29T07:33:37.974Z,19.60
2022-07-29T07:36:05.329Z,19.60
2022-07-29T07:38:32.524Z,19.60
2022-07-29T07:40:59.924Z,19.70
2022-07-29T07:43:27.191Z,19.90
2022-07-29T07:45:54.388Z,20.00
2022-07-29T07:48:21.910Z,20.10
2022-07-29T07:50:51.826Z,20.10
2022-07-29T07:53:19.028Z,20.20
2022-07-29T07:56:09.961Z,20.10
2022-07-29T07:58:34.203Z,20.30
2022-07-29T08:01:01.569Z,20.20
2022-07-29T08:03:28.734Z,20.10
2022-07-29T08:05:56.581Z,20.10
2022-07-29T08:08:23.777Z,20.00
2022-07-29T08:10:53.485Z,20.10
2022-07-29T08:13:21.550Z,20.20
2022-07-29T08:15:48.905Z,20.40
2022-07-29T08:18:16.097Z,20.50
2022-07-29T08:20:45.602Z,20.70
2022-07-29T08:23:12.869Z,20.80
2022-07-29T08:25:40.851Z,21.00
2022-07-29T08:28:08.368Z,20.90
2022-07-29T08:30:35.840Z,20.70
2022-07-29T08:33:03.151Z,20.50
2022-07-29T08:35:35.081Z,20.50
2022-07-29T08:38:04.579Z,20.60
2022-07-29T08:40:32.834Z,20.80
2022-07-29T08:43:06.389Z,20.80
2022-07-29T08:45:48.567Z,20.80
2022-07-29T08:48:17.286Z,20.90
2022-07-29T08:50:47.898Z,20.90
2022-07-29T08:53:17.814Z,21.00
2022-07-29T08:55:50.768Z,21.10
2022-07-29T08:58:20.434Z,21.20
2022-07-29T09:00:56.218Z,21.20
2022-07-29T09:03:28.562Z,21.40
2022-07-29T09:05:55.999Z,21.50
2022-07-29T09:08:23.277Z,21.40
2022-07-29T09:10:50.549Z,21.40
2022-07-29T09:13:17.866Z,21.50
2022-07-29T09:15:46.136Z,21.60
2022-07-29T09:18:20.633Z,21.60
2022-07-29T09:21:17.210Z,21.80
2022-07-29T09:24:16.244Z,21.80
2022-07-29T09:26:45.178Z,21.90
2022-07-29T09:29:17.618Z,22.00
2022-07-29T09:31:49.414Z,21.90
2022-07-29T09:34:37.053Z,22.00
2022-07-29T09:37:04.401Z,22.20
2022-07-29T09:39:37.509Z,22.40
2022-07-29T09:42:06.331Z,22.40
2022-07-29T09:44:47.204Z,22.40
2022-07-29T09:47:17.427Z,22.50
2022-07-29T09:49:59.066Z,22.50
2022-07-29T09:52:29.963Z,22.40
2022-07-29T09:55:13.834Z,22.40
2022-07-29T09:57:46.448Z,22.60
2022-07-29T10:00:21.148Z,22.70
2022-07-29T10:02:48.750Z,22.80
2022-07-29T10:05:24.045Z,22.90
2022-07-29T10:07:54.113Z,22.90
2022-07-29T10:10:22.977Z,23.00
2022-07-29T10:12:55.431Z,23.00
2022-07-29T10:15:24.181Z,23.10
2022-07-29T10:17:52.541Z,23.20
2022-07-29T10:20:20.926Z,23.20
2022-07-29T10:22:53.703Z,23.20
2022-07-29T10:25:21.827Z,23.30
2022-07-29T10:27:49.175Z,23.30
2022-07-29T10:30:17.195Z,23.30
2022-07-29T10:33:09.411Z,23.30
2022-07-29T10:35:51.869Z,23.40
2022-07-29T10:38:56.633Z,23.60
2022-07-29T10:41:43.590Z,23.60
2022-07-29T10:44:23.087Z,23.60
2022-07-29T10:46:51.765Z,23.70
2022-07-29T10:49:19.870Z,23.70
2022-07-29T10:51:59.079Z,23.80
2022-07-29T10:54:42.281Z,23.90
2022-07-29T10:57:53.184Z,24.10
2022-07-29T11:00:16.849Z,24.30
2022-07-29T11:02:46.400Z,24.40
2022-07-29T11:05:21.892Z,24.40
2022-07-29T11:08:19.984Z,24.40
2022-07-29T11:10:51.675Z,24.40
2022-07-29T11:13:48.950Z,24.30
2022-07-29T11:16:16.674Z,24.50
2022-07-29T11:19:16.103Z,24.60
2022-07-29T11:21:58.273Z,24.60
2022-07-29T11:24:30.226Z,24.70
2022-07-29T11:27:18.029Z,25.00
2022-07-29T11:29:54.611Z,25.00
2022-07-29T11:32:24.159Z,24.80
2022-07-29T11:35:17.022Z,24.70
2022-07-29T11:37:55.808Z,24.80
2022-07-29T11:40:25.686Z,24.80
2022-07-29T11:42:53.836Z,24.80
2022-07-29T11:45:43.764Z,24.90
2022-07-29T11:48:29.340Z,24.90
2022-07-29T11:50:59.386Z,25.00
2022-07-29T11:56:16.997Z,24.70
2022-07-29T11:58:47.346Z,24.70
2022-07-29T12:01:15.680Z,24.90
2022-07-29T12:03:45.935Z,24.80
2022-07-29T12:06:17.603Z,25.00
2022-07-29T12:08:45.714Z,25.00
2022-07-29T12:11:20.364Z,25.00
2022-07-29T12:13:49.946Z,25.10
2022-07-29T12:16:25.699Z,25.20
2022-07-29T12:19:00.540Z,25.30
2022-07-29T12:21:29.952Z,25.30
2022-07-29T12:24:03.501Z,25.50
2022-07-29T12:27:12.499Z,25.50
2022-07-29T12:30:08.774Z,25.70
2022-07-29T12:32:38.475Z,25.60
2022-07-29T12:35:18.986Z,25.20
2022-07-29T12:37:49.291Z,25.00
2022-07-29T12:40:19.838Z,25.00
2022-07-29T12:43:18.055Z,25.30
2022-07-29T12:45:58.121Z,25.60
2022-07-29T12:48:35.243Z,25.90
2022-07-29T12:51:03.608Z,26.10
2022-07-29T12:53:30.920Z,26.40
2022-07-29T12:56:00.987Z,26.50
2022-07-29T12:58:38.018Z,26.70
2022-07-29T13:01:17.087Z,26.80
2022-07-29T13:03:57.762Z,27.00
2022-07-29T13:06:35.722Z,27.10
2022-07-29T13:09:08.206Z,27.00
2022-07-29T13:11:45.289Z,27.10
2022-07-29T13:14:16.122Z,26.90
2022-07-29T13:17:19.253Z,26.60
2022-07-29T13:19:50.769Z,26.20
2022-07-29T13:22:26.167Z,25.90
2022-07-29T13:25:03.089Z,25.80
2022-07-29T13:27:33.350Z,25.80
2022-07-29T13:30:01.836Z,25.80
2022-07-29T13:32:30.059Z,25.90
2022-07-29T13:34:58.230Z,26.10
2022-07-29T13:37:25.746Z,26.40
2022-07-29T13:39:54.119Z,26.50
2022-07-29T13:42:23.003Z,26.40
2022-07-29T13:44:51.950Z,26.20
2022-07-29T13:47:20.332Z,26.20
2022-07-29T13:49:47.938Z,26.10
2022-07-29T13:52:16.817Z,26.50
2022-07-29T13:54:47.102Z,26.50
2022-07-29T13:57:17.418Z,26.50
2022-07-29T13:59:48.358Z,26.60
2022-07-29T14:02:17.989Z,26.70
2022-07-29T14:04:45.724Z,26.70
2022-07-29T14:07:16.396Z,26.60
2022-07-29T14:09:44.101Z,26.60
2022-07-29T14:12:11.582Z,26.50
2022-07-29T14:14:38.837Z,26.50
2022-07-29T14:17:07.827Z,26.60
2022-07-29T14:19:39.417Z,26.90
2022-07-29T14:22:07.134Z,27.00
2022-07-29T14:24:34.653Z,27.10
2022-07-29T14:27:05.663Z,27.20
2022-07-29T14:29:37.213Z,27.60
2022-07-29T14:32:09.481Z,27.90
2022-07-29T14:34:37.474Z,28.10
2022-07-29T14:37:06.754Z,28.20
2022-07-29T14:39:36.920Z,28.40
2022-07-29T14:42:07.023Z,28.30
2022-07-29T14:44:34.118Z,28.30
2022-07-29T14:47:07.747Z,28.30
2022-07-29T14:49:35.996Z,28.40
2022-07-29T14:52:03.882Z,28.60
2022-07-29T14:54:30.963Z,28.80
2022-07-29T14:56:58.786Z,28.60
2022-07-29T14:59:27.323Z,28.20
2022-07-29T15:01:54.475Z,27.80
2022-07-29T15:04:21.918Z,27.70
2022-07-29T15:06:49.464Z,27.80
2022-07-29T15:09:16.577Z,28.20
2022-07-29T15:11:46.649Z,28.20
2022-07-29T15:14:13.997Z,28.30
2022-07-29T15:16:47.026Z,28.20
2022-07-29T15:19:18.694Z,28.10
2022-07-29T15:21:48.537Z,27.90
2022-07-29T15:24:17.710Z,27.80
2022-07-29T15:26:48.459Z,27.60
2022-07-29T15:29:16.283Z,27.80
2022-07-29T15:31:44.125Z,27.90
2022-07-29T15:34:11.777Z,27.80
2022-07-29T15:36:54.423Z,28.10
2022-07-29T15:39:22.023Z,28.00
2022-07-29T15:41:49.309Z,27.80
2022-07-29T15:44:16.504Z,27.70
2022-07-29T15:47:02.730Z,27.60
2022-07-29T15:49:48.027Z,27.50
2022-07-29T15:52:25.930Z,27.80
2022-07-29T15:54:54.874Z,27.90
2022-07-29T15:57:22.508Z,27.80
2022-07-29T15:59:49.663Z,27.60
2022-07-29T16:05:18.450Z,27.40
2022-07-29T16:07:54.960Z,27.30
2022-07-29T16:10:22.280Z,27.20
2022-07-29T16:12:49.465Z,27.20
2022-07-29T16:15:16.694Z,27.10
2022-07-29T16:17:44.948Z,27.10
2022-07-29T16:20:13.819Z,27.00
2022-07-29T16:22:41.340Z,27.00
2022-07-29T16:25:09.133Z,26.90
2022-07-29T16:27:37.785Z,27.00
2022-07-29T16:30:07.145Z,27.10
2022-07-29T16:32:34.850Z,27.40
2022-07-29T16:35:03.075Z,27.60
2022-07-29T16:37:33.912Z,27.70
2022-07-29T16:40:01.569Z,27.80
2022-07-29T16:42:45.549Z,27.90
2022-07-29T16:45:16.021Z,28.30
2022-07-29T16:47:45.603Z,28.30
2022-07-29T16:50:12.861Z,28.10
2022-07-29T16:52:40.601Z,27.80
2022-07-29T16:55:08.063Z,27.60
2022-07-29T16:57:35.375Z,27.40
2022-07-29T17:00:02.815Z,27.20
2022-07-29T17:02:30.254Z,27.20
2022-07-29T17:04:57.734Z,27.20
2022-07-29T17:07:25.145Z,27.20
2022-07-29T17:09:55.576Z,27.10
2022-07-29T17:12:23.601Z,27.00
2022-07-29T17:14:50.915Z,27.00
2022-07-29T17:17:20.824Z,26.80
2022-07-29T17:20:05.926Z,26.80
2022-07-29T17:22:33.125Z,26.70
2022-07-29T17:25:00.229Z,26.60
2022-07-29T17:27:28.215Z,26.60
2022-07-29T17:29:55.344Z,26.50
2022-07-29T17:32:22.438Z,26.40
2022-07-29T17:34:49.750Z,26.30
2022-07-29T17:37:17.015Z,26.30
2022-07-29T17:39:47.016Z,26.10
2022-07-29T17:42:17.746Z,25.90
2022-07-29T17:44:48.126Z,25.80
2022-07-29T17:47:18.813Z,25.70
2022-07-29T17:49:46.089Z,25.50
2022-07-29T17:52:13.835Z,25.50
2022-07-29T17:54:41.496Z,25.40
2022-07-29T17:57:08.980Z,25.30
2022-07-29T17:59:36.095Z,25.20
2022-07-29T18:02:03.869Z,25.10
2022-07-29T18:04:31.622Z,25.20
2022-07-29T18:06:59.266Z,25.40
2022-07-29T18:09:27.301Z,25.50
2022-07-29T18:11:54.597Z,25.50
2022-07-29T18:14:21.694Z,25.50
2022-07-29T18:16:49.181Z,25.50
2022-07-29T18:19:16.516Z,25.40
2022-07-29T18:21:53.891Z,25.20
2022-07-29T18:24:25.823Z,25.20
2022-07-29T18:26:53.376Z,25.00
2022-07-29T18:29:20.454Z,25.00
2022-07-29T18:31:47.777Z,24.90
2022-07-29T18:34:17.942Z,24.90
2022-07-29T18:36:46.104Z,24.80
2022-07-29T18:39:20.065Z,24.70
2022-07-29T18:41:52.074Z,24.80
2022-07-29T18:44:22.007Z,24.80
2022-07-29T18:46:51.288Z,24.70
2022-07-29T18:49:18.716Z,24.50
2022-07-29T18:51:46.237Z,24.30
2022-07-29T18:54:15.831Z,24.20
2022-07-29T18:56:43.824Z,24.10
2022-07-29T18:59:11.711Z,24.00
2022-07-29T19:01:38.959Z,23.90
2022-07-29T19:04:06.305Z,23.90
2022-07-29T19:06:33.776Z,23.90
2022-07-29T19:09:01.015Z,23.80
2022-07-29T19:11:28.141Z,23.70
2022-07-29T19:13:55.539Z,23.70
2022-07-29T19:16:22.750Z,23.60
2022-07-29T19:18:50.070Z,23.50
2022-07-29T19:21:20.972Z,23.40
2022-07-29T19:24:06.059Z,23.40
2022-07-29T19:26:36.859Z,23.30
2022-07-29T19:29:04.171Z,23.30
2022-07-29T19:31:31.341Z,23.20
2022-07-29T19:33:58.723Z,23.10
2022-07-29T19:36:27.371Z,23.10
2022-07-29T19:38:54.602Z,23.00
2022-07-29T19:41:22.192Z,22.90
2022-07-29T19:43:52.685Z,22.80
2022-07-29T19:46:23.940Z,22.80
2022-07-29T19:48:51.450Z,22.70
2022-07-29T19:51:18.699Z,22.60
2022-07-29T19:53:46.099Z,22.50
2022-07-29T19:56:15.606Z,22.50
2022-07-29T19:58:44.191Z,22.40
2022-07-29T20:01:12.771Z,22.40
2022-07-29T20:03:40.173Z,22.30
2022-07-29T20:06:13.038Z,22.30
2022-07-29T20:08:42.472Z,22.20
2022-07-29T20:11:09.725Z,22.10
2022-07-29T20:13:36.844Z,22.10
2022-07-29T20:16:06.698Z,22.00
2022-07-29T20:18:34.079Z,22.00
2022-07-29T20:21:01.705Z,21.90
2022-07-29T20:23:33.506Z,21.80
2022-07-29T20:26:00.850Z,21.80
2022-07-29T20:28:27.916Z,21.70
2022-07-29T20:30:55.371Z,21.70
2022-07-29T20:33:22.526Z,21.60
2022-07-29T20:35:49.770Z,21.50
2022-07-29T20:38:18.494Z,21.50
2022-07-29T20:40:45.796Z,21.40
2022-07-29T20:43:13.042Z,21.30
2022-07-29T20:45:41.405Z,21.30
2022-07-29T20:48:08.647Z,21.20
2022-07-29T20:50:36.105Z,21.20
2022-07-29T20:53:03.457Z,21.20
2022-07-29T20:55:32.208Z,21.10
2022-07-29T20:57:59.337Z,21.00
2022-07-29T21:00:27.303Z,21.00
2022-07-29T21:02:54.599Z,21.00
2022-07-29T21:05:21.806Z,21.00
2022-07-29T21:07:49.113Z,20.90
2022-07-29T21:10:18.484Z,20.90
2022-07-29T21:12:48.842Z,20.90
2022-07-29T21:15:16.617Z,20.80
2022-07-29T21:18:00.516Z,20.80
2022-07-29T21:20:30.780Z,20.70
2022-07-29T21:22:58.153Z,20.70
2022-07-29T21:25:25.485Z,20.60
2022-07-29T21:28:11.157Z,20.60
2022-07-29T21:30:38.364Z,20.50
2022-07-29T21:33:05.804Z,20.50
2022-07-29T21:36:06.873Z,20.50
2022-07-29T21:38:20.847Z,20.40
2022-07-29T21:40:49.584Z,20.40
2022-07-29T21:43:16.832Z,20.30
2022-07-29T21:45:44.588Z,20.30
2022-07-29T21:48:11.998Z,20.30
2022-07-29T21:50:39.303Z,20.30
2022-07-29T21:53:06.663Z,20.40
2022-07-29T21:55:34.074Z,20.40
2022-07-29T21:58:01.256Z,20.40
2022-07-29T22:00:29.040Z,20.40
2022-07-29T22:02:56.533Z,20.40
2022-07-29T22:05:23.740Z,20.40
2022-07-29T22:07:54.575Z,20.40
2022-07-29T22:10:28.354Z,20.50
2022-07-29T22:12:58.126Z,20.50
2022-07-29T22:15:25.867Z,20.40
2022-07-29T22:17:53.450Z,20.40
2022-07-29T22:20:20.865Z,20.40
2022-07-29T22:22:48.490Z,20.30
2022-07-29T22:25:15.913Z,20.30
2022-07-29T22:27:43.033Z,20.20
2022-07-29T22:30:11.264Z,20.10
2022-07-29T22:32:38.807Z,20.00
2022-07-29T22:35:06.396Z,19.90
2022-07-29T22:37:33.717Z,19.80
2022-07-29T22:40:01.137Z,19.70
2022-07-29T22:42:28.417Z,19.70
2022-07-29T22:44:55.724Z,19.60
2022-07-29T22:47:46.702Z,19.60
2022-07-29T22:50:10.813Z,19.50
2022-07-29T22:52:38.216Z,19.50
2022-07-29T22:55:05.604Z,19.40
2022-07-29T22:57:34.401Z,19.40
2022-07-29T23:00:02.923Z,19.30
2022-07-29T23:02:30.249Z,19.30
2022-07-29T23:04:57.429Z,19.30
2022-07-29T23:07:25.734Z,19.30
2022-07-29T23:09:53.102Z,19.20
2022-07-29T23:12:20.449Z,19.20
2022-07-29T23:14:47.780Z,19.20
2022-07-29T23:17:15.501Z,19.10
2022-07-29T23:19:42.767Z,19.10
2022-07-29T23:22:10.127Z,19.10
2022-07-29T23:24:37.187Z,19.10
2022-07-29T23:27:04.724Z,19.10
2022-07-29T23:29:36.580Z,19.00
2022-07-29T23:32:04.733Z,19.00
2022-07-29T23:34:32.129Z,19.00
2022-07-29T23:36:59.488Z,18.90
2022-07-29T23:39:26.873Z,18.90
2022-07-29T23:41:54.199Z,18.90
2022-07-29T23:44:21.573Z,18.90
2022-07-29T23:46:48.784Z,18.80
2022-07-29T23:49:16.306Z,18.80
2022-07-29T23:51:45.768Z,18.80
2022-07-29T23:54:12.967Z,18.80
2022-07-29T23:56:41.739Z,18.70
2022-07-29T23:59:09.072Z,18.70
